createdAt,value
2023-04-19T00:00:43.851Z,101263.41
2023-04-19T00:03:10.366Z,101265.03
2023-04-19T00:05:36.881Z,101261.88
2023-04-19T00:08:03.247Z,101263.06
2023-04-19T00:10:29.639Z,101261.19
2023-04-19T00:12:55.989Z,101260.69
2023-04-19T00:15:22.305Z,101262.75
2023-04-19T00:17:48.704Z,101265.88
2023-04-19T00:20:15.032Z,101263.50
2023-04-19T00:22:41.341Z,101272.44
2023-04-19T00:25:07.668Z,101272.19
2023-04-19T00:27:33.980Z,101268.19
2023-04-19T00:30:00.369Z,101265.78
2023-04-19T00:32:26.729Z,101265.47
2023-04-19T00:34:53.115Z,101272.78
2023-04-19T00:37:19.486Z,101259.47
2023-04-19T00:39:45.884Z,101263.06
2023-04-19T00:42:12.316Z,101260.34
2023-04-19T00:44:38.636Z,101267.00
2023-04-19T00:47:04.969Z,101258.81
2023-04-19T00:49:31.347Z,101264.69
2023-04-19T00:51:57.728Z,101258.16
2023-04-19T00:54:24.090Z,101257.38
2023-04-19T00:56:50.467Z,101254.97
2023-04-19T00:59:16.780Z,101256.59
2023-04-19T01:01:43.218Z,101258.91
2023-04-19T01:04:09.727Z,101253.38
2023-04-19T01:06:36.101Z,101257.88
2023-04-19T01:09:02.464Z,101255.84
2023-04-19T01:11:28.804Z,101255.84
2023-04-19T01:13:55.126Z,101255.50
2023-04-19T01:16:21.485Z,101251.25
2023-04-19T01:18:47.889Z,101246.03
2023-04-19T01:21:14.226Z,101251.94
2023-04-19T01:23:40.586Z,101251.56
2023-04-19T01:26:06.959Z,101249.28
2023-04-19T01:28:33.287Z,101246.81
2023-04-19T01:30:59.667Z,101254.66
2023-04-19T01:33:26.028Z,101255.06
2023-04-19T01:35:52.372Z,101258.81
2023-04-19T01:38:18.704Z,101244.25
2023-04-19T01:40:45.034Z,101257.47
2023-04-19T01:43:11.348Z,101252.78
2023-04-19T01:45:37.711Z,101239.16
2023-04-19T01:48:04.106Z,101246.47
2023-04-19T01:50:30.459Z,101236.75
2023-04-19T01:52:56.776Z,101235.56
2023-04-19T01:55:23.167Z,101240.59
2023-04-19T01:57:49.530Z,101241.88
2023-04-19T02:00:15.848Z,101239.56
2023-04-19T02:02:42.335Z,101239.06
2023-04-19T02:05:08.799Z,101241.81
2023-04-19T02:07:35.141Z,101242.31
2023-04-19T02:10:01.476Z,101240.34
2023-04-19T02:12:27.855Z,101240.34
2023-04-19T02:14:54.171Z,101239.66
2023-04-19T02:17:20.530Z,101235.75
2023-04-19T02:19:46.910Z,101230.63
2023-04-19T02:22:13.222Z,101241.31
2023-04-19T02:24:39.599Z,101231.84
2023-04-19T02:27:05.927Z,101241.31
2023-04-19T02:29:32.292Z,101239.94
2023-04-19T02:31:58.636Z,101236.00
2023-04-19T02:34:24.947Z,101234.91
2023-04-19T02:36:51.265Z,101233.94
2023-04-19T02:39:17.597Z,101234.47
2023-04-19T02:41:43.929Z,101227.50
2023-04-19T02:44:10.264Z,101236.00
2023-04-19T02:46:36.749Z,101234.56
2023-04-19T02:49:03.256Z,101237.63
2023-04-19T02:51:29.626Z,101229.44
2023-04-19T02:53:55.961Z,101230.22
2023-04-19T02:56:22.260Z,101228.34
2023-04-19T02:58:48.662Z,101232.41
2023-04-19T03:01:15.063Z,101231.41
2023-04-19T03:03:41.464Z,101240.13
2023-04-19T03:06:07.849Z,101240.34
2023-04-19T03:08:34.163Z,101235.31
2023-04-19T03:11:00.543Z,101242.06
2023-04-19T03:13:26.870Z,101241.13
2023-04-19T03:15:53.314Z,101243.50
2023-04-19T03:18:19.752Z,101233.03
2023-04-19T03:20:46.118Z,101234.47
2023-04-19T03:23:12.500Z,101234.81
2023-04-19T03:25:38.879Z,101234.00
2023-04-19T03:28:05.189Z,101233.38
2023-04-19T03:30:31.559Z,101224.09
2023-04-19T03:32:57.936Z,101224.94
2023-04-19T03:35:24.261Z,101228.44
2023-04-19T03:37:50.635Z,101229.34
2023-04-19T03:40:16.958Z,101225.63
2023-04-19T03:42:43.296Z,101226.59
2023-04-19T03:45:09.714Z,101238.50
2023-04-19T03:47:36.169Z,101234.13
2023-04-19T03:50:02.529Z,101237.63
2023-04-19T03:52:28.898Z,101228.34
2023-04-19T03:54:55.283Z,101223.84
2023-04-19T03:57:21.590Z,101224.09
2023-04-19T03:59:47.936Z,101218.81
2023-04-19T04:02:14.355Z,101218.41
2023-04-19T04:04:40.987Z,101217.97
2023-04-19T04:07:07.605Z,101220.78
2023-04-19T04:09:33.974Z,101221.78
2023-04-19T04:12:00.363Z,101225.03
2023-04-19T04:14:26.732Z,101215.91
2023-04-19T04:16:53.051Z,101224.09
2023-04-19T04:19:19.360Z,101217.88
2023-04-19T04:21:45.708Z,101232.44
2023-04-19T04:24:12.067Z,101229.97
2023-04-19T04:26:38.431Z,101224.59
2023-04-19T04:29:04.768Z,101226.81
2023-04-19T04:31:31.123Z,101228.34
2023-04-19T04:33:57.461Z,101223.75
2023-04-19T04:36:23.845Z,101217.19
2023-04-19T04:38:50.236Z,101227.69
2023-04-19T04:41:16.595Z,101228.19
2023-04-19T04:43:42.969Z,101230.50
2023-04-19T04:46:09.319Z,101227.84
2023-04-19T04:48:35.644Z,101231.69
2023-04-19T04:51:01.976Z,101241.31
2023-04-19T04:53:28.295Z,101243.66
2023-04-19T04:55:54.610Z,101244.13
2023-04-19T04:58:20.943Z,101234.75
2023-04-19T05:00:47.376Z,101238.84
2023-04-19T05:03:13.873Z,101238.94
2023-04-19T05:05:40.301Z,101239.63
2023-04-19T05:08:06.664Z,101242.66
2023-04-19T05:10:33.057Z,101238.41
2023-04-19T05:12:59.436Z,101242.34
2023-04-19T05:15:25.757Z,101236.97
2023-04-19T05:17:52.254Z,101245.31
2023-04-19T05:20:18.618Z,101248.38
2023-04-19T05:22:44.970Z,101243.94
2023-04-19T05:25:11.336Z,101244.78
2023-04-19T05:27:37.735Z,101249.38
2023-04-19T05:30:04.139Z,101248.56
2023-04-19T05:32:30.492Z,101247.44
2023-04-19T05:34:56.860Z,101256.81
2023-04-19T05:37:23.217Z,101255.59
2023-04-19T05:39:49.548Z,101249.56
2023-04-19T05:42:15.901Z,101255.78
2023-04-19T05:44:42.264Z,101256.19
2023-04-19T05:47:08.625Z,101258.50
2023-04-19T05:49:35.093Z,101261.06
2023-04-19T05:52:01.444Z,101264.97
2023-04-19T05:54:27.798Z,101263.78
2023-04-19T05:56:54.164Z,101261.91
2023-04-19T05:59:20.487Z,101270.31
2023-04-19T06:01:46.923Z,101268.38
2023-04-19T06:04:13.468Z,101265.28
2023-04-19T06:06:39.839Z,101265.56
2023-04-19T06:09:06.216Z,101274.41
2023-04-19T06:11:39.389Z,101272.00
2023-04-19T06:14:14.115Z,101271.16
2023-04-19T06:16:40.756Z,101282.91
2023-04-19T06:19:07.250Z,101280.19
2023-04-19T06:21:33.714Z,101279.31
2023-04-19T06:24:00.082Z,101276.59
2023-04-19T06:26:26.426Z,101286.72
2023-04-19T06:28:52.815Z,101283.84
2023-04-19T06:31:19.208Z,101282.91
2023-04-19T06:33:45.580Z,101286.25
2023-04-19T06:36:11.950Z,101292.56
2023-04-19T06:38:38.342Z,101289.91
2023-04-19T06:41:04.671Z,101289.47
2023-04-19T06:43:31.005Z,101296.13
2023-04-19T06:45:57.349Z,101297.31
2023-04-19T06:48:23.742Z,101292.56
2023-04-19T06:50:50.158Z,101289.13
2023-04-19T06:53:16.496Z,101299.69
2023-04-19T06:55:42.811Z,101293.47
2023-04-19T06:58:09.163Z,101296.84
2023-04-19T07:00:35.482Z,101300.38
2023-04-19T07:03:02.126Z,101291.94
2023-04-19T07:05:28.601Z,101299.16
2023-04-19T07:07:54.919Z,101291.16
2023-04-19T07:10:21.277Z,101301.97
2023-04-19T07:12:47.654Z,101292.81
2023-04-19T07:15:13.983Z,101289.59
2023-04-19T07:17:40.336Z,101297.66
2023-04-19T07:20:06.801Z,101288.53
2023-04-19T07:22:33.112Z,101285.69
2023-04-19T07:24:59.446Z,101284.19
2023-04-19T07:27:25.836Z,101296.44
2023-04-19T07:29:52.190Z,101299.41
2023-04-19T07:32:18.715Z,101300.09
2023-04-19T07:34:45.094Z,101300.31
2023-04-19T07:37:11.462Z,101304.81
2023-04-19T07:39:37.811Z,101302.59
2023-04-19T07:42:04.137Z,101305.69
2023-04-19T07:44:30.451Z,101301.53
2023-04-19T07:46:56.929Z,101301.78
2023-04-19T07:49:23.315Z,101305.16
2023-04-19T07:51:49.711Z,101313.34
2023-04-19T07:54:16.232Z,101305.59
2023-04-19T07:56:42.767Z,101308.53
2023-04-19T07:59:09.687Z,101299.25
2023-04-19T08:01:36.307Z,101302.97
2023-04-19T08:04:03.151Z,101295.66
2023-04-19T08:06:29.767Z,101294.78
2023-04-19T08:08:56.151Z,101292.81
2023-04-19T08:11:22.520Z,101297.63
2023-04-19T08:14:02.630Z,101296.75
2023-04-19T08:17:18.516Z,101295.56
2023-04-19T08:19:19.316Z,101302.88
2023-04-19T08:21:45.718Z,101309.63
2023-04-19T08:24:12.111Z,101291.41
2023-04-19T08:26:38.448Z,101291.50
2023-04-19T08:29:04.793Z,101297.19
2023-04-19T08:31:31.189Z,101292.69
2023-04-19T08:33:57.527Z,101292.03
2023-04-19T08:36:37.105Z,101293.59
2023-04-19T08:39:14.628Z,101289.34
2023-04-19T08:41:50.320Z,101287.47
2023-04-19T08:44:32.543Z,101294.59
2023-04-19T08:47:02.044Z,101288.59
2023-04-19T08:49:28.428Z,101296.78
2023-04-19T08:51:54.751Z,101293.00
2023-04-19T08:54:21.073Z,101276.63
2023-04-19T08:56:47.441Z,101294.03
2023-04-19T08:59:18.427Z,101290.09
2023-04-19T09:01:45.788Z,101287.34
2023-04-19T09:04:34.660Z,101286.59
2023-04-19T09:06:58.570Z,101283.44
2023-04-19T09:09:35.545Z,101285.81
2023-04-19T09:12:05.335Z,101280.69
2023-04-19T09:14:31.658Z,101287.34
2023-04-19T09:16:57.950Z,101285.06
2023-04-19T09:19:25.497Z,101282.63
2023-04-19T09:21:52.070Z,101283.19
2023-04-19T09:24:18.452Z,101282.84
2023-04-19T09:26:44.812Z,101286.00
2023-04-19T09:29:13.230Z,101277.22
2023-04-19T09:34:09.419Z,101274.09
2023-04-19T09:36:35.761Z,101275.38
2023-04-19T09:39:02.068Z,101266.28
2023-04-19T09:41:28.427Z,101267.75
2023-04-19T09:46:24.075Z,101264.69
2023-04-19T09:48:50.453Z,101266.53
2023-04-19T09:51:16.820Z,101262.16
2023-04-19T09:53:43.212Z,101260.28
2023-04-19T09:56:09.554Z,101256.81
2023-04-19T09:58:48.952Z,101254.63
2023-04-19T10:01:17.552Z,101250.28
2023-04-19T10:03:44.181Z,101245.31
2023-04-19T10:06:19.356Z,101244.53
2023-04-19T10:08:56.993Z,101245.00
2023-04-19T10:11:23.346Z,101241.56
2023-04-19T10:13:51.336Z,101237.22
2023-04-19T10:16:20.049Z,101236.56
2023-04-19T10:18:46.965Z,101231.00
2023-04-19T10:21:13.351Z,101233.50
2023-04-19T10:23:39.715Z,101235.59
2023-04-19T10:26:06.030Z,101230.69
2023-04-19T10:28:32.333Z,101233.00
2023-04-19T10:30:58.652Z,101236.47
2023-04-19T10:33:25.029Z,101229.78
2023-04-19T10:35:51.362Z,101231.88
2023-04-19T10:38:17.737Z,101230.56
2023-04-19T10:40:44.079Z,101232.91
2023-04-19T10:43:10.401Z,101222.41
2023-04-19T10:45:36.726Z,101219.16
2023-04-19T10:48:03.163Z,101218.81
2023-04-19T10:50:29.487Z,101229.09
2023-04-19T10:52:55.843Z,101214.25
2023-04-19T10:55:22.158Z,101217.19
2023-04-19T10:57:48.462Z,101217.75
2023-04-19T11:00:14.829Z,101220.34
2023-04-19T11:02:41.335Z,101224.75
2023-04-19T11:05:07.818Z,101210.44
2023-04-19T11:07:34.121Z,101210.44
2023-04-19T11:10:00.477Z,101212.72
2023-04-19T11:12:26.868Z,101208.88
2023-04-19T11:14:53.283Z,101204.19
2023-04-19T11:17:19.668Z,101197.31
2023-04-19T11:19:45.999Z,101182.78
2023-04-19T11:22:12.320Z,101195.78
2023-04-19T11:24:38.679Z,101190.44
2023-04-19T11:27:04.997Z,101173.50
2023-04-19T11:29:31.364Z,101182.34
2023-04-19T11:31:57.723Z,101181.59
2023-04-19T11:34:24.082Z,101175.59
2023-04-19T11:36:50.449Z,101174.41
2023-04-19T11:39:16.828Z,101173.81
2023-04-19T11:41:43.160Z,101165.25
2023-04-19T11:44:09.467Z,101169.59
2023-04-19T11:46:35.862Z,101164.25
2023-04-19T11:49:02.220Z,101164.47
2023-04-19T11:51:28.589Z,101161.75
2023-04-19T11:53:54.924Z,101158.25
2023-04-19T11:56:21.222Z,101157.91
2023-04-19T11:58:47.548Z,101153.09
2023-04-19T12:01:14.034Z,101157.47
2023-04-19T12:03:40.695Z,101153.22
2023-04-19T12:06:07.223Z,101144.72
2023-04-19T12:08:33.753Z,101155.06
2023-04-19T12:11:00.142Z,101144.72
2023-04-19T12:13:26.452Z,101134.84
2023-04-19T12:15:52.862Z,101145.47
2023-04-19T12:18:19.197Z,101142.84
2023-04-19T12:20:45.507Z,101137.47
2023-04-19T12:23:11.894Z,101134.97
2023-04-19T12:25:38.268Z,101135.81
2023-04-19T12:28:04.585Z,101137.81
2023-04-19T12:30:30.979Z,101128.63
2023-04-19T12:32:57.436Z,101119.78
2023-04-19T12:35:23.873Z,101134.44
2023-04-19T12:37:50.180Z,101131.59
2023-04-19T12:40:16.500Z,101129.63
2023-04-19T12:42:42.820Z,101130.34
2023-04-19T12:45:09.209Z,101129.63
2023-04-19T12:47:35.614Z,101128.09
2023-04-19T12:50:02.021Z,101124.69
2023-04-19T12:52:28.383Z,101127.63
2023-04-19T12:54:54.709Z,101116.19
2023-04-19T12:57:21.022Z,101114.66
2023-04-19T12:59:47.374Z,101114.72
2023-04-19T13:02:13.780Z,101100.00
2023-04-19T13:04:40.336Z,101113.78
2023-04-19T13:07:06.733Z,101106.00
2023-04-19T13:09:33.092Z,101107.13
2023-04-19T13:11:59.564Z,101101.97
2023-04-19T13:14:25.930Z,101096.31
2023-04-19T13:16:52.248Z,101100.31
2023-04-19T13:19:18.554Z,101092.25
2023-04-19T13:21:44.909Z,101093.47
2023-04-19T13:24:11.296Z,101089.28
2023-04-19T13:26:37.835Z,101091.81
2023-04-19T13:29:04.246Z,101088.78
2023-04-19T13:31:30.636Z,101085.41
2023-04-19T13:33:56.927Z,101094.53
2023-04-19T13:36:23.230Z,101082.41
2023-04-19T13:38:49.545Z,101087.34
2023-04-19T13:41:15.940Z,101081.44
2023-04-19T13:43:42.328Z,101078.16
2023-04-19T13:46:08.677Z,101077.50
2023-04-19T13:48:35.064Z,101081.31
2023-04-19T13:51:01.380Z,101070.38
2023-04-19T13:53:27.682Z,101082.66
2023-04-19T13:55:54.032Z,101074.13
2023-04-19T13:58:20.352Z,101072.69
2023-04-19T14:00:46.874Z,101064.63
2023-04-19T14:03:13.362Z,101057.44
2023-04-19T14:05:39.850Z,101057.63
2023-04-19T14:08:06.193Z,101054.59
2023-04-19T14:10:32.500Z,101055.34
2023-04-19T14:12:58.931Z,101052.63
2023-04-19T14:15:25.329Z,101052.03
2023-04-19T14:17:51.756Z,101050.31
2023-04-19T14:20:18.142Z,101045.63
2023-04-19T14:22:44.476Z,101047.34
2023-04-19T14:25:10.845Z,101044.31
2023-04-19T14:27:37.322Z,101048.78
2023-04-19T14:30:03.700Z,101046.41
2023-04-19T14:32:30.229Z,101042.47
2023-04-19T14:34:56.738Z,101036.78
2023-04-19T14:37:24.293Z,101036.78
2023-04-19T14:39:50.993Z,101038.00
2023-04-19T14:42:18.049Z,101036.16
2023-04-19T14:44:45.170Z,101028.84
2023-04-19T14:47:11.544Z,101037.81
2023-04-19T14:49:37.913Z,101037.69
2023-04-19T14:52:04.240Z,101028.28
2023-04-19T14:54:30.630Z,101028.28
2023-04-19T14:56:56.998Z,101019.00
2023-04-19T14:59:23.363Z,101032.53
2023-04-19T15:01:49.743Z,101022.25
2023-04-19T15:04:16.164Z,101025.88
2023-04-19T15:06:42.631Z,101022.91
2023-04-19T15:09:08.990Z,101011.97
2023-04-19T15:11:35.312Z,101015.78
2023-04-19T15:14:01.645Z,101021.34
2023-04-19T15:16:28.088Z,101017.25
2023-04-19T15:18:54.489Z,101010.13
2023-04-19T15:21:22.286Z,101008.28
2023-04-19T15:23:50.659Z,101007.97
2023-04-19T15:26:16.974Z,101012.81
2023-04-19T15:28:43.286Z,101010.91
2023-04-19T15:31:09.695Z,101011.34
2023-04-19T15:33:36.081Z,101006.00
2023-04-19T15:36:02.472Z,101004.03
2023-04-19T15:38:28.863Z,101004.03
2023-04-19T15:40:55.225Z,101002.72
2023-04-19T15:43:21.542Z,101002.13
2023-04-19T15:45:47.850Z,101012.44
2023-04-19T15:48:14.216Z,101009.44
2023-04-19T15:50:42.274Z,101007.41
2023-04-19T15:53:09.938Z,101007.41
2023-04-19T15:55:36.296Z,101012.56
2023-04-19T15:58:02.643Z,101013.53
2023-04-19T16:00:29.002Z,101006.63
2023-04-19T16:02:55.516Z,101011.03
2023-04-19T16:05:22.004Z,101006.38
2023-04-19T16:07:48.369Z,101015.59
2023-04-19T16:10:14.705Z,101008.47
2023-04-19T16:12:41.055Z,101011.53
2023-04-19T16:15:07.477Z,101002.06
2023-04-19T16:17:33.789Z,101008.28
2023-04-19T16:20:00.186Z,101005.56
2023-04-19T16:22:26.614Z,101009.81
2023-04-19T16:24:52.966Z,101011.34
2023-04-19T16:27:19.336Z,101016.66
2023-04-19T16:29:45.661Z,101013.41
2023-04-19T16:32:12.173Z,101010.56
2023-04-19T16:34:38.559Z,101013.94
2023-04-19T16:37:04.882Z,101019.00
2023-04-19T16:39:31.200Z,101019.00
2023-04-19T16:41:57.502Z,101021.19
2023-04-19T16:44:23.826Z,101012.34
2023-04-19T16:46:50.147Z,101012.69
2023-04-19T16:49:16.654Z,101004.59
2023-04-19T16:51:43.310Z,101000.34
2023-04-19T16:54:09.660Z,100997.88
2023-04-19T16:56:36.000Z,101003.19
2023-04-19T16:59:02.392Z,101006.69
2023-04-19T17:01:28.842Z,101004.72
2023-04-19T17:03:55.430Z,101001.34
2023-04-19T17:06:21.970Z,101009.72
2023-04-19T17:08:48.359Z,100999.59
2023-04-19T17:11:14.718Z,101008.53
2023-04-19T17:13:41.076Z,101004.41
2023-04-19T17:16:07.451Z,101000.91
2023-04-19T17:18:33.899Z,101007.59
2023-04-19T17:21:00.365Z,100996.97
2023-04-19T17:23:26.727Z,100999.41
2023-04-19T17:25:53.051Z,100995.00
2023-04-19T17:28:19.567Z,100993.81
2023-04-19T17:30:45.979Z,100998.94
2023-04-19T17:33:12.393Z,100997.41
2023-04-19T17:35:38.762Z,100986.47
2023-04-19T17:38:05.077Z,100978.88
2023-04-19T17:40:31.480Z,100981.59
2023-04-19T17:42:57.896Z,100977.56
2023-04-19T17:45:24.201Z,100984.97
2023-04-19T17:47:50.590Z,100987.25
2023-04-19T17:50:17.003Z,100980.28
2023-04-19T17:52:43.392Z,100982.56
2023-04-19T17:55:09.716Z,100984.53
2023-04-19T17:57:36.095Z,100986.19
2023-04-19T18:00:02.426Z,100987.06
2023-04-19T18:02:29.011Z,100986.94
2023-04-19T18:04:55.536Z,100988.25
2023-04-19T18:07:21.873Z,100991.22
2023-04-19T18:09:48.193Z,100992.19
2023-04-19T18:12:14.579Z,100988.47
2023-04-19T18:14:40.948Z,100981.78
2023-04-19T18:17:07.283Z,100983.56
2023-04-19T18:19:33.639Z,100982.81
2023-04-19T18:21:59.967Z,100979.66
2023-04-19T18:24:26.291Z,100976.56
2023-04-19T18:26:52.674Z,100979.44
2023-04-19T18:29:19.109Z,100976.28
2023-04-19T18:31:45.520Z,100976.69
2023-04-19T18:34:12.659Z,100976.28
2023-04-19T18:36:39.078Z,100972.34
2023-04-19T18:39:05.424Z,100979.31
2023-04-19T18:41:31.759Z,100979.00
2023-04-19T18:46:27.379Z,100976.69
2023-04-19T18:48:53.734Z,100971.25
2023-04-19T18:51:20.041Z,100974.75
2023-04-19T18:53:46.409Z,100979.88
2023-04-19T18:56:12.787Z,100979.25
2023-04-19T18:58:39.188Z,100986.53
2023-04-19T19:01:05.598Z,100984.13
2023-04-19T19:03:56.844Z,100992.00
2023-04-19T19:06:18.324Z,100987.75
2023-04-19T19:08:44.815Z,100982.28
2023-04-19T19:11:32.929Z,100980.31
2023-04-19T19:13:57.608Z,100984.13
2023-04-19T19:16:25.385Z,100983.81
2023-04-19T19:18:51.861Z,100981.50
2023-04-19T19:21:18.176Z,100985.00
2023-04-19T19:23:44.475Z,100977.94
2023-04-19T19:26:10.792Z,100986.25
2023-04-19T19:28:37.118Z,100977.41
2023-04-19T19:31:03.571Z,100976.94
2023-04-19T19:33:30.022Z,100978.47
2023-04-19T19:35:56.341Z,100989.69
2023-04-19T19:38:22.657Z,100986.25
2023-04-19T19:41:24.746Z,100982.28
2023-04-19T19:43:35.307Z,100984.41
2023-04-19T19:46:01.743Z,100985.59
2023-04-19T19:48:30.189Z,100983.94
2023-04-19T19:51:26.926Z,100987.88
2023-04-19T19:53:43.233Z,100985.13
2023-04-19T19:56:18.270Z,100989.84
2023-04-19T19:58:51.373Z,100995.63
2023-04-19T20:01:18.420Z,100988.63
2023-04-19T20:03:44.966Z,100984.69
2023-04-19T20:07:02.992Z,100985.13
2023-04-19T20:08:57.794Z,100978.94
2023-04-19T20:11:24.732Z,100981.66
2023-04-19T20:13:51.086Z,100983.63
2023-04-19T20:16:17.589Z,100982.09
2023-04-19T20:18:44.086Z,100982.09
2023-04-19T20:21:10.454Z,100978.16
2023-04-19T20:23:36.822Z,100984.41
2023-04-19T20:26:03.256Z,100980.91
2023-04-19T20:28:29.581Z,100984.50
2023-04-19T20:30:55.907Z,100978.94
2023-04-19T20:33:22.208Z,100978.59
2023-04-19T20:35:48.523Z,100979.19
2023-04-19T20:38:14.847Z,100984.50
2023-04-19T20:40:41.162Z,100979.06
2023-04-19T20:43:07.500Z,100981.03
2023-04-19T20:45:33.847Z,100976.63
2023-04-19T20:48:00.290Z,100986.03
2023-04-19T20:50:26.647Z,100984.06
2023-04-19T20:52:53.013Z,100987.97
2023-04-19T20:55:19.321Z,100984.50
2023-04-19T20:57:45.674Z,100987.25
2023-04-19T21:00:11.983Z,100985.25
2023-04-19T21:02:38.653Z,100981.78
2023-04-19T21:05:05.129Z,100982.66
2023-04-19T21:07:31.473Z,100971.31
2023-04-19T21:09:57.783Z,100969.00
2023-04-19T21:12:24.082Z,100982.22
2023-04-19T21:14:50.397Z,100974.78
2023-04-19T21:17:16.723Z,100975.22
2023-04-19T21:19:43.029Z,100986.91
2023-04-19T21:22:09.342Z,100974.03
2023-04-19T21:24:35.710Z,100981.13
2023-04-19T21:27:02.013Z,100972.63
2023-04-19T21:29:28.388Z,100983.09
2023-04-19T21:31:54.748Z,100976.09
2023-04-19T21:34:21.149Z,100970.66
2023-04-19T21:36:47.453Z,100974.56
2023-04-19T21:39:13.906Z,100981.13
2023-04-19T21:41:40.243Z,100976.44
2023-04-19T21:44:07.797Z,100984.31
2023-04-19T21:46:34.262Z,100982.75
2023-04-19T21:49:00.659Z,100979.28
2023-04-19T21:51:27.005Z,100973.38
2023-04-19T21:53:53.318Z,100978.84
2023-04-19T21:56:19.673Z,100978.84
2023-04-19T21:58:46.009Z,100976.09
2023-04-19T22:01:12.337Z,100983.09
2023-04-19T22:03:38.957Z,100973.38
2023-04-19T22:06:05.653Z,100974.16
2023-04-19T22:08:33.095Z,100978.06
2023-04-19T22:10:59.515Z,100969.56
2023-04-19T22:13:25.810Z,100973.06
2023-04-19T22:15:52.185Z,100964.88
2023-04-19T22:18:18.507Z,100962.59
2023-04-19T22:20:44.811Z,100964.13
2023-04-19T22:23:11.159Z,100966.84
2023-04-19T22:25:37.466Z,100958.31
2023-04-19T22:28:05.549Z,100958.78
2023-04-19T22:30:33.667Z,100963.78
2023-04-19T22:32:59.997Z,100959.56
2023-04-19T22:35:26.341Z,100959.09
2023-04-19T22:37:52.734Z,100952.53
2023-04-19T22:40:19.114Z,100954.84
2023-04-19T22:42:45.414Z,100951.00
2023-04-19T22:45:11.770Z,100954.50
2023-04-19T22:47:38.166Z,100949.41
2023-04-19T22:50:04.545Z,100944.47
2023-04-19T22:52:30.916Z,100945.66
2023-04-19T22:54:57.215Z,100947.88
2023-04-19T22:57:23.584Z,100941.75
2023-04-19T22:59:49.961Z,100944.03
2023-04-19T23:02:16.298Z,100937.34
2023-04-19T23:04:42.710Z,100934.22
2023-04-19T23:07:09.029Z,100929.94
2023-04-19T23:09:35.351Z,100933.44
2023-04-19T23:12:01.817Z,100929.28
2023-04-19T23:14:28.142Z,100933.25
2023-04-19T23:16:54.663Z,100933.56
2023-04-19T23:19:21.009Z,100936.59
2023-04-19T23:21:47.373Z,100933.44
2023-04-19T23:24:13.698Z,100934.31
2023-04-19T23:26:40.078Z,100928.88
2023-04-19T23:29:06.445Z,100930.19
2023-04-19T23:31:32.878Z,100928.53
2023-04-19T23:33:59.248Z,100924.28
2023-04-19T23:36:25.593Z,100926.25
2023-04-19T23:38:51.954Z,100918.06
2023-04-19T23:41:18.337Z,100922.34
2023-04-19T23:43:44.726Z,100922.75
2023-04-19T23:46:11.051Z,100916.53
2023-04-19T23:48:37.435Z,100917.00
2023-04-19T23:51:03.742Z,100919.72
2023-04-19T23:53:30.118Z,100918.63
2023-04-19T23:55:56.573Z,100913.81
2023-04-19T23:58:22.986Z,100913.94
